createdAt,value
2023-11-18T00:00:55.820Z,71.86
2023-11-18T00:01:56.083Z,71.76
2023-11-18T00:02:56.243Z,71.66
2023-11-18T00:03:56.438Z,71.66
2023-11-18T00:04:56.545Z,71.76
2023-11-18T00:05:56.737Z,71.86
2023-11-18T00:06:56.878Z,71.86
2023-11-18T00:07:57.121Z,71.97
2023-11-18T00:08:57.241Z,72.06
2023-11-18T00:09:57.407Z,72.06
2023-11-18T00:10:57.612Z,71.97
2023-11-18T00:11:57.719Z,71.86
2023-11-18T00:12:57.932Z,71.76
2023-11-18T00:13:58.176Z,72.06
2023-11-18T00:14:58.276Z,72.06
2023-11-18T00:15:58.444Z,72.06
2023-11-18T00:16:58.641Z,72.06
2023-11-18T00:17:58.868Z,72.06
2023-11-18T00:18:58.994Z,71.97
2023-11-18T00:19:59.189Z,71.97
2023-11-18T00:20:59.377Z,71.97
2023-11-18T00:21:59.515Z,71.97
2023-11-18T00:22:59.794Z,72.06
2023-11-18T00:23:59.916Z,72.06
2023-11-18T00:25:00.052Z,72.06
2023-11-18T00:26:00.255Z,72.06
2023-11-18T00:27:00.413Z,72.06
2023-11-18T00:28:00.581Z,71.97
2023-11-18T00:29:00.800Z,71.97
2023-11-18T00:30:01.036Z,72.06
2023-11-18T00:31:01.208Z,72.06
2023-11-18T00:32:01.385Z,72.17
2023-11-18T00:33:01.555Z,72.27
2023-11-18T00:34:01.622Z,72.17
2023-11-18T00:35:01.856Z,72.17
2023-11-18T00:36:01.949Z,72.17
2023-11-18T00:37:02.151Z,72.06
2023-11-18T00:38:02.391Z,72.06
2023-11-18T00:39:02.532Z,71.86
2023-11-18T00:40:02.726Z,71.86
2023-11-18T00:41:02.845Z,71.86
2023-11-18T00:42:02.995Z,71.97
2023-11-18T00:43:03.156Z,72.06
2023-11-18T00:44:03.379Z,71.97
2023-11-18T00:45:03.515Z,71.76
2023-11-18T00:46:03.656Z,71.66
2023-11-18T00:47:04.089Z,71.86
2023-11-18T00:48:04.107Z,71.97
2023-11-18T00:49:04.207Z,71.97
2023-11-18T00:50:04.545Z,71.97
2023-11-18T00:51:04.550Z,72.06
2023-11-18T00:52:04.703Z,72.06
2023-11-18T00:53:04.919Z,72.06
2023-11-18T00:54:05.066Z,71.97
2023-11-18T00:55:05.261Z,71.86
2023-11-18T00:56:05.477Z,72.06
2023-11-18T00:57:05.621Z,71.86
2023-11-18T00:58:05.807Z,71.76
2023-11-18T00:59:06.029Z,71.86
2023-11-18T01:00:06.139Z,71.86
2023-11-18T01:01:06.342Z,71.76
2023-11-18T01:02:06.545Z,71.76
2023-11-18T01:03:06.754Z,71.76
2023-11-18T01:04:06.861Z,71.86
2023-11-18T01:05:07.096Z,71.86
2023-11-18T01:06:07.183Z,71.66
2023-11-18T01:07:07.329Z,71.97
2023-11-18T01:08:07.610Z,72.17
2023-11-18T01:09:07.765Z,72.06
2023-11-18T01:10:07.910Z,71.97
2023-11-18T01:11:08.049Z,71.97
2023-11-18T01:12:09.240Z,72.06
2023-11-18T01:13:08.386Z,72.17
2023-11-18T01:14:08.646Z,72.06
2023-11-18T01:15:08.774Z,71.97
2023-11-18T01:16:08.973Z,71.97
2023-11-18T01:17:09.145Z,71.97
2023-11-18T01:18:09.379Z,71.86
2023-11-18T01:19:09.469Z,72.06
2023-11-18T01:20:09.651Z,71.86
2023-11-18T01:21:09.810Z,71.86
2023-11-18T01:22:10.002Z,71.86
2023-11-18T01:23:10.200Z,71.83
2023-11-18T01:24:10.337Z,71.97
2023-11-18T01:25:10.491Z,71.83
2023-11-18T01:26:10.686Z,71.83
2023-11-18T01:27:10.910Z,71.72
2023-11-18T01:28:11.115Z,71.83
2023-11-18T01:29:11.247Z,71.72
2023-11-18T01:30:11.492Z,71.62
2023-11-18T01:31:11.668Z,71.72
2023-11-18T01:32:11.875Z,71.62
2023-11-18T01:33:12.009Z,71.62
2023-11-18T01:34:12.128Z,71.72
2023-11-18T01:35:12.543Z,71.83
2023-11-18T01:36:12.514Z,71.83
2023-11-18T01:37:12.727Z,71.72
2023-11-18T01:38:12.838Z,71.83
2023-11-18T01:39:13.011Z,71.83
2023-11-18T01:40:13.171Z,71.86
2023-11-18T01:41:13.357Z,71.97
2023-11-18T01:42:13.507Z,72.06
2023-11-18T01:43:13.719Z,72.06
2023-11-18T01:44:13.879Z,72.17
2023-11-18T01:45:14.046Z,72.17
2023-11-18T01:46:14.414Z,72.03
2023-11-18T01:47:14.451Z,72.17
2023-11-18T01:48:14.609Z,72.17
2023-11-18T01:49:14.848Z,72.17
2023-11-18T01:50:14.933Z,72.27
2023-11-18T01:51:15.121Z,72.27
2023-11-18T01:52:15.314Z,72.27
2023-11-18T01:53:15.563Z,72.27
2023-11-18T01:54:15.667Z,72.27
2023-11-18T01:55:15.945Z,72.27
2023-11-18T01:56:16.001Z,72.48
2023-11-18T01:57:16.178Z,72.58
2023-11-18T01:58:16.390Z,72.48
2023-11-18T01:59:16.548Z,72.38
2023-11-18T02:00:16.728Z,72.38
2023-11-18T02:01:16.932Z,72.58
2023-11-18T02:02:17.211Z,72.48
2023-11-18T02:03:17.371Z,72.38
2023-11-18T02:04:17.575Z,72.38
2023-11-18T02:05:17.671Z,72.58
2023-11-18T02:06:17.861Z,72.48
2023-11-18T02:07:18.017Z,72.48
2023-11-18T02:08:18.164Z,72.58
2023-11-18T02:09:18.361Z,72.72
2023-11-18T02:10:18.569Z,72.89
2023-11-18T02:11:18.746Z,72.82
2023-11-18T02:12:18.915Z,72.92
2023-11-18T02:13:19.042Z,72.92
2023-11-18T02:14:19.267Z,72.92
2023-11-18T02:15:19.423Z,73.02
2023-11-18T02:16:19.593Z,72.92
2023-11-18T02:17:19.774Z,72.92
2023-11-18T02:18:19.997Z,73.02
2023-11-18T02:19:20.131Z,73.02
2023-11-18T02:20:20.309Z,72.92
2023-11-18T02:21:20.459Z,73.13
2023-11-18T02:22:20.640Z,73.23
2023-11-18T02:23:20.865Z,73.13
2023-11-18T02:24:21.019Z,73.02
2023-11-18T02:25:21.186Z,73.02
2023-11-18T02:26:21.349Z,72.92
2023-11-18T02:27:21.572Z,72.92
2023-11-18T02:28:21.717Z,72.92
2023-11-18T02:29:22.013Z,73.13
2023-11-18T02:30:22.071Z,73.13
2023-11-18T02:31:22.303Z,73.23
2023-11-18T02:32:22.459Z,73.33
2023-11-18T02:33:22.651Z,73.44
2023-11-18T02:34:22.813Z,73.33
2023-11-18T02:35:22.976Z,73.33
2023-11-18T02:36:23.175Z,73.23
2023-11-18T02:37:23.334Z,73.33
2023-11-18T02:38:23.487Z,73.19
2023-11-18T02:39:23.716Z,73.13
2023-11-18T02:40:23.857Z,73.23
2023-11-18T02:41:24.051Z,73.10
2023-11-18T02:42:24.175Z,73.19
2023-11-18T02:43:24.361Z,73.10
2023-11-18T02:44:24.652Z,72.99
2023-11-18T02:45:24.762Z,72.99
2023-11-18T02:46:24.904Z,72.99
2023-11-18T02:47:25.073Z,72.99
2023-11-18T02:48:25.258Z,73.10
2023-11-18T02:49:25.377Z,73.23
2023-11-18T02:50:25.560Z,73.19
2023-11-18T02:51:25.752Z,73.10
2023-11-18T02:52:25.915Z,73.10
2023-11-18T02:53:26.091Z,72.99
2023-11-18T02:54:26.244Z,73.10
2023-11-18T02:55:26.469Z,73.10
2023-11-18T02:56:26.627Z,73.19
2023-11-18T02:57:26.782Z,73.19
2023-11-18T02:58:26.934Z,73.19
2023-11-18T02:59:27.125Z,73.19
2023-11-18T03:00:27.301Z,73.10
2023-11-18T03:01:27.479Z,73.19
2023-11-18T03:02:27.662Z,73.30
2023-11-18T03:03:27.875Z,73.30
2023-11-18T03:04:27.987Z,73.19
2023-11-18T03:05:28.197Z,73.33
2023-11-18T03:06:28.363Z,73.19
2023-11-18T03:07:28.588Z,73.19
2023-11-18T03:08:28.694Z,73.19
2023-11-18T03:09:28.992Z,73.10
2023-11-18T03:10:29.064Z,73.10
2023-11-18T03:11:29.178Z,72.99
2023-11-18T03:12:29.482Z,72.99
2023-11-18T03:13:29.573Z,72.99
2023-11-18T03:14:29.818Z,72.89
2023-11-18T03:15:29.887Z,72.68
2023-11-18T03:16:30.161Z,72.78
2023-11-18T03:17:30.240Z,72.78
2023-11-18T03:18:30.418Z,72.78
2023-11-18T03:19:30.686Z,72.78
2023-11-18T03:20:30.780Z,72.68
2023-11-18T03:21:30.926Z,72.58
2023-11-18T03:22:31.187Z,72.48
2023-11-18T03:23:31.290Z,72.48
2023-11-18T03:24:31.502Z,72.38
2023-11-18T03:25:31.742Z,72.38
2023-11-18T03:26:31.785Z,72.48
2023-11-18T03:27:31.978Z,72.38
2023-11-18T03:28:32.193Z,72.38
2023-11-18T03:29:32.352Z,72.38
2023-11-18T03:30:32.519Z,72.48
2023-11-18T03:31:32.672Z,72.48
2023-11-18T03:32:32.931Z,72.48
2023-11-18T03:33:33.055Z,72.58
2023-11-18T03:34:33.352Z,72.68
2023-11-18T03:35:33.413Z,72.78
2023-11-18T03:36:33.510Z,72.78
2023-11-18T03:37:33.686Z,72.89
2023-11-18T03:38:34.373Z,72.99
2023-11-18T03:39:34.015Z,72.99
2023-11-18T03:40:34.224Z,72.89
2023-11-18T03:41:34.355Z,72.89
2023-11-18T03:42:34.515Z,72.99
2023-11-18T03:43:34.713Z,72.99
2023-11-18T03:44:34.860Z,72.89
2023-11-18T03:45:35.048Z,72.78
2023-11-18T03:46:35.597Z,72.89
2023-11-18T03:47:35.531Z,72.89
2023-11-18T03:48:35.613Z,72.78
2023-11-18T03:49:35.765Z,72.89
2023-11-18T03:50:35.972Z,72.99
2023-11-18T03:51:36.128Z,72.89
2023-11-18T03:52:36.324Z,72.78
2023-11-18T03:53:36.493Z,72.78
2023-11-18T03:54:36.648Z,72.68
2023-11-18T03:55:36.851Z,72.68
2023-11-18T03:56:36.997Z,72.92
2023-11-18T03:57:37.181Z,72.92
2023-11-18T03:58:37.373Z,73.02
2023-11-18T03:59:37.505Z,73.13
2023-11-18T04:00:37.699Z,73.13
2023-11-18T04:01:37.942Z,73.13
2023-11-18T04:02:38.099Z,73.13
2023-11-18T04:03:38.246Z,73.13
2023-11-18T04:04:38.383Z,73.13
2023-11-18T04:05:38.552Z,73.13
2023-11-18T04:06:38.753Z,73.23
2023-11-18T04:07:38.935Z,73.13
2023-11-18T04:08:39.138Z,73.23
2023-11-18T04:09:39.326Z,73.13
2023-11-18T04:10:39.525Z,73.02
2023-11-18T04:11:39.664Z,72.82
2023-11-18T04:12:39.851Z,72.92
2023-11-18T04:13:39.999Z,72.92
2023-11-18T04:14:40.203Z,72.72
2023-11-18T04:15:40.403Z,72.82
2023-11-18T04:16:40.629Z,72.82
2023-11-18T04:17:40.803Z,72.82
2023-11-18T04:18:40.956Z,72.82
2023-11-18T04:19:41.092Z,72.82
2023-11-18T04:20:41.261Z,73.13
2023-11-18T04:21:41.478Z,73.02
2023-11-18T04:22:41.625Z,73.02
2023-11-18T04:23:41.852Z,73.13
2023-11-18T04:24:41.983Z,73.13
2023-11-18T04:25:42.222Z,73.02
2023-11-18T04:26:42.411Z,72.92
2023-11-18T04:27:45.377Z,73.02
2023-11-18T04:28:42.745Z,73.02
2023-11-18T04:29:42.850Z,73.02
2023-11-18T04:30:43.091Z,73.13
2023-11-18T04:31:43.383Z,73.02
2023-11-18T04:32:44.164Z,73.02
2023-11-18T04:33:43.527Z,73.13
2023-11-18T04:34:44.026Z,73.13
2023-11-18T04:35:43.855Z,73.33
2023-11-18T04:36:44.045Z,73.36
2023-11-18T04:37:44.884Z,73.47
2023-11-18T04:38:44.425Z,73.36
2023-11-18T04:39:44.551Z,73.47
2023-11-18T04:40:44.807Z,73.57
2023-11-18T04:41:44.958Z,73.57
2023-11-18T04:42:45.113Z,73.68
2023-11-18T04:43:46.191Z,73.68
2023-11-18T04:44:45.468Z,73.57
2023-11-18T04:45:45.685Z,73.47
2023-11-18T04:46:45.910Z,73.44
2023-11-18T04:47:46.360Z,73.44
2023-11-18T04:48:46.343Z,73.44
2023-11-18T04:49:46.369Z,73.44
2023-11-18T04:50:46.557Z,73.44
2023-11-18T04:51:46.735Z,73.33
2023-11-18T04:52:46.920Z,73.36
2023-11-18T04:53:47.057Z,73.36
2023-11-18T04:54:47.237Z,73.47
2023-11-18T04:55:47.472Z,73.47
2023-11-18T04:56:47.629Z,73.47
2023-11-18T04:57:47.799Z,73.54
2023-11-18T04:58:48.024Z,73.44
2023-11-18T04:59:48.130Z,73.33
2023-11-18T05:00:48.333Z,73.54
2023-11-18T05:01:48.522Z,73.44
2023-11-18T05:02:49.120Z,73.54
2023-11-18T05:03:49.032Z,73.44
2023-11-18T05:04:49.020Z,73.33
2023-11-18T05:05:49.145Z,73.33
2023-11-18T05:06:49.342Z,73.33
2023-11-18T05:07:49.603Z,73.33
2023-11-18T05:08:49.719Z,73.23
2023-11-18T05:09:49.842Z,73.23
2023-11-18T05:10:50.128Z,73.23
2023-11-18T05:11:50.199Z,73.02
2023-11-18T05:12:50.492Z,73.02
2023-11-18T05:13:50.731Z,73.13
2023-11-18T05:14:50.715Z,73.02
2023-11-18T05:15:50.888Z,73.13
2023-11-18T05:16:51.094Z,73.23
2023-11-18T05:17:51.366Z,73.33
2023-11-18T05:18:51.436Z,73.44
2023-11-18T05:19:51.634Z,73.64
2023-11-18T05:20:51.781Z,73.54
2023-11-18T05:21:51.963Z,73.54
2023-11-18T05:22:52.209Z,73.64
2023-11-18T05:23:52.320Z,73.54
2023-11-18T05:24:52.542Z,73.44
2023-11-18T05:25:52.777Z,73.44
2023-11-18T05:26:52.879Z,73.44
2023-11-18T05:27:53.083Z,73.44
2023-11-18T05:28:53.274Z,73.33
2023-11-18T05:29:53.405Z,73.23
2023-11-18T05:30:53.679Z,73.23
2023-11-18T05:31:53.773Z,73.13
2023-11-18T05:32:53.942Z,73.13
2023-11-18T05:33:54.077Z,73.13
2023-11-18T05:34:54.271Z,73.13
2023-11-18T05:35:54.397Z,73.13
2023-11-18T05:36:54.591Z,73.13
2023-11-18T05:37:54.852Z,72.92
2023-11-18T05:38:54.956Z,72.89
2023-11-18T05:39:55.099Z,72.78
2023-11-18T05:40:55.297Z,72.72
2023-11-18T05:41:55.480Z,72.78
2023-11-18T05:42:55.611Z,72.68
2023-11-18T05:43:55.819Z,72.78
2023-11-18T05:44:55.966Z,72.78
2023-11-18T05:45:56.124Z,72.78
2023-11-18T05:46:56.435Z,72.58
2023-11-18T05:47:56.530Z,72.68
2023-11-18T05:48:56.652Z,72.58
2023-11-18T05:49:56.834Z,72.58
2023-11-18T05:50:57.031Z,72.58
2023-11-18T05:51:57.154Z,72.58
2023-11-18T05:52:57.402Z,72.58
2023-11-18T05:53:57.545Z,72.68
2023-11-18T05:54:57.702Z,72.68
2023-11-18T05:55:57.922Z,72.68
2023-11-18T05:56:59.960Z,72.48
2023-11-18T05:57:58.230Z,72.38
2023-11-18T05:58:58.461Z,72.38
2023-11-18T05:59:58.632Z,72.27
2023-11-18T06:00:58.796Z,72.38
2023-11-18T06:01:58.974Z,72.38
2023-11-18T06:02:59.297Z,72.48
2023-11-18T06:03:59.383Z,72.38
2023-11-18T06:04:59.496Z,72.38
2023-11-18T06:05:59.620Z,72.48
2023-11-18T06:06:59.858Z,72.58
2023-11-18T06:08:00.110Z,72.72
2023-11-18T06:09:00.273Z,72.72
2023-11-18T06:10:00.449Z,72.82
2023-11-18T06:11:00.534Z,72.72
2023-11-18T06:12:00.735Z,72.92
2023-11-18T06:13:00.863Z,72.92
2023-11-18T06:14:01.089Z,72.82
2023-11-18T06:15:01.236Z,72.72
2023-11-18T06:16:01.390Z,72.68
2023-11-18T06:17:01.602Z,72.72
2023-11-18T06:18:01.775Z,72.72
2023-11-18T06:19:01.856Z,72.61
2023-11-18T06:20:02.111Z,72.61
2023-11-18T06:21:02.232Z,72.82
2023-11-18T06:22:02.357Z,72.72
2023-11-18T06:23:02.569Z,72.61
2023-11-18T06:24:02.707Z,72.72
2023-11-18T06:25:02.918Z,72.72
2023-11-18T06:26:03.128Z,72.61
2023-11-18T06:27:03.224Z,72.72
2023-11-18T06:28:03.370Z,72.72
2023-11-18T06:29:03.592Z,72.61
2023-11-18T06:30:03.739Z,72.61
2023-11-18T06:31:03.951Z,72.82
2023-11-18T06:32:04.179Z,72.61
2023-11-18T06:33:04.365Z,72.72
2023-11-18T06:34:04.447Z,72.61
2023-11-18T06:35:04.626Z,72.61
2023-11-18T06:36:04.790Z,72.61
2023-11-18T06:37:05.034Z,72.82
2023-11-18T06:38:05.188Z,72.82
2023-11-18T06:39:05.339Z,72.72
2023-11-18T06:40:05.490Z,72.61
2023-11-18T06:41:07.399Z,72.51
2023-11-18T06:42:05.890Z,72.61
2023-11-18T06:43:06.039Z,72.51
2023-11-18T06:44:06.250Z,72.27
2023-11-18T06:45:06.372Z,72.27
2023-11-18T06:46:06.588Z,72.27
2023-11-18T06:47:06.953Z,72.17
2023-11-18T06:48:07.070Z,72.06
2023-11-18T06:49:07.045Z,72.17
2023-11-18T06:50:07.268Z,72.06
2023-11-18T06:51:07.363Z,71.97
2023-11-18T06:52:07.578Z,72.06
2023-11-18T06:53:07.773Z,72.06
2023-11-18T06:54:07.906Z,72.17
2023-11-18T06:55:08.078Z,72.27
2023-11-18T06:56:08.268Z,72.27
2023-11-18T06:57:08.463Z,72.06
2023-11-18T06:58:08.614Z,71.97
2023-11-18T06:59:08.951Z,71.86
2023-11-18T07:00:08.960Z,71.83
2023-11-18T07:01:09.267Z,71.72
2023-11-18T07:02:09.366Z,71.83
2023-11-18T07:03:09.571Z,71.72
2023-11-18T07:04:09.887Z,71.93
2023-11-18T07:05:09.919Z,71.72
2023-11-18T07:06:10.016Z,71.62
2023-11-18T07:07:10.286Z,71.62
2023-11-18T07:08:10.362Z,71.52
2023-11-18T07:09:10.526Z,71.42
2023-11-18T07:10:10.700Z,71.31
2023-11-18T07:11:10.929Z,71.52
2023-11-18T07:12:11.055Z,71.42
2023-11-18T07:13:11.232Z,71.39
2023-11-18T07:14:11.468Z,71.18
2023-11-18T07:15:11.588Z,70.97
2023-11-18T07:16:11.843Z,70.87
2023-11-18T07:17:12.029Z,70.97
2023-11-18T07:18:12.181Z,70.97
2023-11-18T07:19:12.255Z,72.20
2023-11-18T07:20:12.489Z,72.82
2023-11-18T07:21:12.625Z,72.41
2023-11-18T07:22:12.791Z,72.10
2023-11-18T07:23:13.061Z,72.31
2023-11-18T07:24:13.185Z,72.48
2023-11-18T07:25:13.343Z,71.35
2023-11-18T07:26:13.697Z,70.84
2023-11-18T07:27:13.746Z,70.64
2023-11-18T07:28:13.865Z,70.64
2023-11-18T07:29:14.124Z,71.04
2023-11-18T07:30:14.252Z,70.84
2023-11-18T07:31:14.459Z,70.91
2023-11-18T07:32:14.672Z,71.32
2023-11-18T07:33:14.773Z,70.70
2023-11-18T07:34:14.916Z,70.50
2023-11-18T07:35:15.121Z,69.98
2023-11-18T07:36:15.297Z,70.50
2023-11-18T07:37:15.417Z,70.09
2023-11-18T07:38:15.621Z,70.70
2023-11-18T07:39:15.800Z,69.98
2023-11-18T07:40:15.944Z,70.40
2023-11-18T07:41:16.195Z,70.50
2023-11-18T07:42:16.321Z,70.09
2023-11-18T07:43:16.507Z,70.50
2023-11-18T07:44:16.717Z,69.98
2023-11-18T07:45:16.839Z,69.95
2023-11-18T07:46:17.106Z,69.85
2023-11-18T07:47:17.213Z,69.65
2023-11-18T07:48:17.409Z,69.34
2023-11-18T07:49:17.571Z,69.44
2023-11-18T07:50:17.739Z,69.44
2023-11-18T07:51:17.862Z,69.54
2023-11-18T07:52:18.068Z,69.65
2023-11-18T07:53:18.303Z,69.44
2023-11-18T07:54:18.385Z,69.24
2023-11-18T07:55:18.586Z,69.34
2023-11-18T07:56:18.817Z,69.13
2023-11-18T07:57:18.911Z,69.34
2023-11-18T07:58:19.097Z,69.03
2023-11-18T07:59:19.314Z,69.24
2023-11-18T08:00:19.469Z,69.13
2023-11-18T08:01:19.690Z,69.85
2023-11-18T08:02:19.915Z,69.75
2023-11-18T08:03:20.055Z,70.26
2023-11-18T08:04:20.126Z,70.36
2023-11-18T08:05:20.402Z,70.06
2023-11-18T08:06:20.463Z,70.16
2023-11-18T08:07:20.664Z,69.65
2023-11-18T08:08:20.906Z,69.24
2023-11-18T08:09:21.020Z,69.34
2023-11-18T08:10:21.153Z,69.44
2023-11-18T08:11:21.352Z,69.75
2023-11-18T08:12:21.559Z,69.03
2023-11-18T08:13:21.706Z,68.62
2023-11-18T08:14:21.917Z,68.52
2023-11-18T08:15:22.056Z,70.36
2023-11-18T08:16:22.369Z,70.36
2023-11-18T08:17:22.508Z,70.98
2023-11-18T08:18:22.632Z,69.85
2023-11-18T08:19:22.759Z,69.54
2023-11-18T08:20:23.011Z,69.95
2023-11-18T08:21:23.110Z,70.16
2023-11-18T08:22:23.329Z,70.06
2023-11-18T08:23:23.515Z,69.24
2023-11-18T08:24:23.649Z,69.03
2023-11-18T08:25:23.839Z,69.03
2023-11-18T08:26:24.062Z,70.57
2023-11-18T08:27:24.186Z,69.95
2023-11-18T08:28:24.378Z,69.95
2023-11-18T08:29:24.611Z,69.44
2023-11-18T08:30:24.744Z,69.85
2023-11-18T08:31:24.970Z,69.44
2023-11-18T08:32:25.197Z,68.93
2023-11-18T08:33:25.401Z,69.03
2023-11-18T08:34:25.432Z,69.03
2023-11-18T08:35:25.590Z,68.83
2023-11-18T08:36:25.822Z,68.41
2023-11-18T08:37:25.999Z,68.41
2023-11-18T08:38:26.110Z,68.52
2023-11-18T08:39:26.285Z,68.11
2023-11-18T08:40:26.478Z,68.52
2023-11-18T08:41:26.616Z,68.41
2023-11-18T08:42:26.780Z,68.73
2023-11-18T08:43:26.957Z,68.83
2023-11-18T08:44:27.174Z,68.62
2023-11-18T08:45:27.283Z,68.38
2023-11-18T08:46:27.470Z,68.41
2023-11-18T08:47:27.645Z,68.08
2023-11-18T08:48:27.797Z,68.08
2023-11-18T08:49:27.990Z,67.87
2023-11-18T08:50:28.172Z,67.87
2023-11-18T08:51:28.387Z,67.77
2023-11-18T08:52:28.541Z,68.01
2023-11-18T08:53:28.766Z,68.21
2023-11-18T08:54:28.869Z,68.21
2023-11-18T08:55:28.996Z,68.18
2023-11-18T08:56:29.325Z,68.11
2023-11-18T08:57:29.418Z,67.90
2023-11-18T08:58:30.137Z,67.87
2023-11-18T08:59:29.747Z,67.90
2023-11-18T09:00:29.912Z,68.41
2023-11-18T09:01:30.178Z,68.32
2023-11-18T09:02:31.685Z,67.90
2023-11-18T09:03:30.674Z,67.70
2023-11-18T09:04:30.667Z,67.60
2023-11-18T09:05:30.797Z,67.29
2023-11-18T09:06:30.978Z,67.46
2023-11-18T09:07:31.141Z,67.36
2023-11-18T09:08:31.327Z,67.46
2023-11-18T09:09:31.542Z,67.46
2023-11-18T09:10:31.658Z,67.67
2023-11-18T09:11:31.830Z,67.67
2023-11-18T09:12:31.970Z,67.57
2023-11-18T09:13:32.127Z,67.33
2023-11-18T09:14:32.410Z,67.02
2023-11-18T09:15:32.492Z,67.23
2023-11-18T09:16:32.698Z,67.02
2023-11-18T09:17:32.927Z,66.99
2023-11-18T09:18:33.118Z,67.19
2023-11-18T09:19:33.150Z,66.58
2023-11-18T09:20:33.342Z,66.58
2023-11-18T09:21:33.560Z,66.45
2023-11-18T09:22:33.689Z,66.86
2023-11-18T09:23:33.857Z,67.37
2023-11-18T09:24:35.447Z,65.91
2023-11-18T09:25:34.211Z,65.40
2023-11-18T09:26:34.381Z,65.50
2023-11-18T09:27:34.582Z,65.09
2023-11-18T09:28:34.734Z,64.99
2023-11-18T09:29:34.911Z,65.50
2023-11-18T09:30:35.067Z,66.42
2023-11-18T09:31:35.316Z,65.50
2023-11-18T09:32:35.503Z,64.89
2023-11-18T09:33:36.027Z,64.78
2023-11-18T09:34:35.732Z,65.09
2023-11-18T09:35:35.959Z,65.30
2023-11-18T09:36:36.096Z,65.30
2023-11-18T09:37:36.334Z,65.09
2023-11-18T09:38:36.513Z,66.42
2023-11-18T09:39:36.676Z,65.19
2023-11-18T09:40:36.819Z,65.67
2023-11-18T09:41:37.004Z,66.49
2023-11-18T09:42:37.252Z,66.08
2023-11-18T09:43:37.482Z,66.39
2023-11-18T09:44:37.551Z,65.16
2023-11-18T09:45:37.782Z,64.14
2023-11-18T09:46:37.908Z,64.04
2023-11-18T09:47:38.152Z,63.70
2023-11-18T09:48:38.241Z,63.40
2023-11-18T09:49:38.437Z,63.40
2023-11-18T09:50:38.682Z,63.90
2023-11-18T09:51:38.771Z,63.81
2023-11-18T09:52:38.938Z,63.60
2023-11-18T09:53:39.151Z,63.40
2023-11-18T09:54:39.281Z,63.29
2023-11-18T09:55:39.473Z,63.29
2023-11-18T09:56:40.137Z,63.29
2023-11-18T09:57:39.776Z,63.49
2023-11-18T09:58:39.960Z,63.67
2023-11-18T09:59:40.146Z,63.37
2023-11-18T10:00:40.375Z,63.47
2023-11-18T10:01:40.516Z,63.16
2023-11-18T10:02:40.698Z,62.96
2023-11-18T10:03:40.885Z,62.85
2023-11-18T10:04:41.046Z,62.65
2023-11-18T10:05:41.220Z,62.93
2023-11-18T10:06:41.407Z,63.03
2023-11-18T10:07:41.592Z,63.13
2023-11-18T10:08:41.717Z,62.73
2023-11-18T10:09:41.893Z,62.42
2023-11-18T10:10:42.119Z,61.57
2023-11-18T10:11:42.267Z,60.96
2023-11-18T10:12:42.439Z,60.48
2023-11-18T10:13:42.644Z,60.89
2023-11-18T10:14:42.840Z,61.30
2023-11-18T10:15:42.964Z,61.19
2023-11-18T10:16:43.161Z,61.30
2023-11-18T10:17:43.354Z,61.43
2023-11-18T10:18:43.521Z,61.83
2023-11-18T10:19:43.687Z,62.04
2023-11-18T10:20:43.832Z,62.35
2023-11-18T10:21:44.002Z,62.35
2023-11-18T10:22:44.206Z,62.76
2023-11-18T10:23:44.327Z,62.58
2023-11-18T10:24:44.520Z,62.48
2023-11-18T10:25:44.799Z,62.58
2023-11-18T10:26:44.862Z,62.37
2023-11-18T10:27:45.054Z,62.27
2023-11-18T10:28:45.234Z,62.48
2023-11-18T10:29:45.396Z,62.58
2023-11-18T10:30:46.394Z,62.68
2023-11-18T10:31:45.746Z,62.48
2023-11-18T10:32:45.955Z,62.37
2023-11-18T10:33:46.110Z,62.35
2023-11-18T10:34:46.316Z,61.76
2023-11-18T10:35:46.413Z,61.83
2023-11-18T10:36:46.612Z,62.14
2023-11-18T10:37:46.778Z,61.32
2023-11-18T10:38:46.940Z,61.53
2023-11-18T10:39:47.129Z,61.25
2023-11-18T10:40:47.338Z,61.66
2023-11-18T10:41:47.453Z,61.76
2023-11-18T10:42:47.682Z,62.68
2023-11-18T10:43:47.832Z,62.88
2023-11-18T10:44:47.995Z,62.99
2023-11-18T10:45:48.255Z,62.58
2023-11-18T10:46:48.375Z,62.58
2023-11-18T10:47:48.546Z,63.02
2023-11-18T10:48:49.187Z,62.71
2023-11-18T10:49:48.919Z,62.92
2023-11-18T10:50:49.089Z,63.02
2023-11-18T10:51:49.205Z,62.71
2023-11-18T10:52:49.430Z,62.51
2023-11-18T10:53:49.588Z,62.40
2023-11-18T10:54:49.776Z,62.27
2023-11-18T10:55:49.913Z,62.27
2023-11-18T10:56:50.143Z,62.17
2023-11-18T10:57:50.301Z,61.87
2023-11-18T10:58:50.513Z,61.97
2023-11-18T10:59:50.602Z,61.43
2023-11-18T11:00:50.859Z,60.61
2023-11-18T11:01:51.625Z,60.21
2023-11-18T11:02:51.816Z,60.33
2023-11-18T11:03:51.378Z,60.74
2023-11-18T11:04:51.479Z,61.05
2023-11-18T11:05:51.679Z,61.05
2023-11-18T11:06:51.817Z,61.12
2023-11-18T11:07:52.012Z,60.71
2023-11-18T11:08:52.672Z,60.82
2023-11-18T11:09:52.309Z,61.22
2023-11-18T11:10:52.509Z,60.51
2023-11-18T11:11:52.659Z,60.21
2023-11-18T11:12:52.861Z,60.00
2023-11-18T11:13:53.011Z,60.41
2023-11-18T11:14:53.206Z,60.23
2023-11-18T11:15:57.582Z,60.53
2023-11-18T11:16:53.602Z,61.25
2023-11-18T11:17:53.722Z,61.38
2023-11-18T11:18:53.847Z,61.38
2023-11-18T11:19:54.048Z,61.79
2023-11-18T11:20:54.196Z,61.38
2023-11-18T11:21:54.389Z,61.69
2023-11-18T11:22:54.541Z,61.92
2023-11-18T11:23:54.732Z,62.43
2023-11-18T11:24:54.881Z,62.02
2023-11-18T11:25:55.105Z,61.82
2023-11-18T11:26:55.272Z,62.13
2023-11-18T11:27:55.400Z,62.46
2023-11-18T11:28:55.647Z,62.57
2023-11-18T11:29:55.787Z,62.66
2023-11-18T11:30:55.944Z,62.57
2023-11-18T11:31:56.105Z,62.70
2023-11-18T11:32:56.240Z,63.10
2023-11-18T11:33:56.398Z,63.10
2023-11-18T11:34:56.611Z,63.41
2023-11-18T11:35:56.726Z,63.51
2023-11-18T11:36:56.970Z,63.51
2023-11-18T11:37:57.096Z,63.31
2023-11-18T11:38:57.379Z,63.62
2023-11-18T11:39:57.405Z,63.82
2023-11-18T11:40:57.623Z,63.92
2023-11-18T11:41:58.370Z,63.62
2023-11-18T11:42:57.976Z,63.62
2023-11-18T11:43:58.182Z,63.62
2023-11-18T11:44:58.308Z,63.82
2023-11-18T11:45:58.507Z,64.23
2023-11-18T11:46:58.776Z,64.13
2023-11-18T11:47:58.926Z,64.00
2023-11-18T11:48:58.994Z,64.00
2023-11-18T11:50:01.708Z,63.79
2023-11-18T11:50:59.393Z,63.39
2023-11-18T11:51:59.522Z,63.28
2023-11-18T11:52:59.712Z,63.39
2023-11-18T11:53:59.851Z,63.39
2023-11-18T11:55:00.039Z,63.39
2023-11-18T11:56:00.334Z,63.07
2023-11-18T11:57:00.362Z,63.07
2023-11-18T11:58:00.549Z,62.57
2023-11-18T11:59:00.772Z,62.98
2023-11-18T12:00:00.902Z,63.21
2023-11-18T12:01:01.088Z,63.31
2023-11-18T12:02:01.296Z,63.51
2023-11-18T12:03:01.453Z,63.72
2023-11-18T12:04:01.654Z,63.82
2023-11-18T12:05:01.867Z,63.62
2023-11-18T12:06:02.012Z,63.92
2023-11-18T12:07:08.856Z,65.05
2023-11-18T12:08:03.390Z,64.84
2023-11-18T12:09:02.516Z,64.23
2023-11-18T12:10:02.691Z,64.13
2023-11-18T12:11:02.979Z,64.23
2023-11-18T12:12:03.039Z,64.23
2023-11-18T12:13:03.200Z,64.64
2023-11-18T12:14:03.424Z,64.43
2023-11-18T12:15:03.604Z,64.33
2023-11-18T12:16:03.823Z,64.23
2023-11-18T12:17:04.043Z,64.84
2023-11-18T12:18:04.213Z,64.64
2023-11-18T12:19:04.346Z,64.57
2023-11-18T12:20:04.574Z,64.98
2023-11-18T12:21:04.654Z,65.08
2023-11-18T12:22:04.821Z,64.87
2023-11-18T12:23:05.024Z,64.87
2023-11-18T12:24:05.230Z,65.18
2023-11-18T12:25:05.381Z,64.87
2023-11-18T12:26:05.514Z,65.28
2023-11-18T12:27:05.685Z,64.98
2023-11-18T12:28:05.864Z,65.52
2023-11-18T12:29:06.097Z,65.42
2023-11-18T12:30:06.208Z,66.13
2023-11-18T12:31:07.720Z,66.64
2023-11-18T12:32:06.627Z,66.54
2023-11-18T12:33:06.961Z,66.44
2023-11-18T12:34:07.022Z,66.13
2023-11-18T12:35:07.120Z,66.13
2023-11-18T12:36:07.295Z,66.06
2023-11-18T12:37:07.483Z,66.27
2023-11-18T12:38:07.618Z,66.37
2023-11-18T12:39:07.773Z,66.27
2023-11-18T12:40:07.954Z,66.37
2023-11-18T12:41:08.258Z,66.37
2023-11-18T12:42:08.496Z,66.47
2023-11-18T12:43:08.522Z,66.47
2023-11-18T12:44:08.753Z,66.47
2023-11-18T12:45:08.816Z,66.47
2023-11-18T12:46:09.105Z,66.47
2023-11-18T12:47:09.242Z,66.47
2023-11-18T12:48:09.487Z,66.47
2023-11-18T12:49:09.505Z,67.29
2023-11-18T12:50:09.742Z,66.98
2023-11-18T12:51:09.868Z,66.88
2023-11-18T12:52:10.052Z,67.19
2023-11-18T12:53:10.302Z,67.08
2023-11-18T12:54:10.405Z,66.98
2023-11-18T12:55:10.585Z,66.98